Accueil
METAR-TAF:

METAR-TAF

Aéroports :

Aéroport international de Norwich

Norwich, Angleterre

latitude: 52-38N, longitude: 001-18E, altitude: 14 m

Observation

Le bulletin a été fait il y a 38 minutes, à 21:20 UTC
Vent 8 kt de ouest/sud-ouest
Température 7°C
Humidité 81%
Pression 1020 hPa
Visibilité 10 km ou plus

METAR: EGSH 082120Z AUTO 24008KT 9999 OVC034/// 07/04 Q1020

Heure: 21:58 (21:58 UTC)

Prévision

Le bulletin a été fait il y a 1 heure et 59 minutes, à 19:59 UTC
Prévision valable du 08 à 21 UTC au 09 à 06 UTC
Vent 9 kt de ouest
Visibilité 10 km ou plus
Nuages épars à une hauteur de 3000 ft
Temporairement
du 08 à 21 UTC au 09 à 04 UTC
Visibilité: 8000 m
pluie faible

TAF: EGSH 081959Z 0821/0906 26009KT 9999 SCT030 TEMPO 0821/0904 8000 -RA

Observations et prévisions météorologiques de plus de 4000 aéroports (messages METAR et TAF).

Les stations disponibles sont représentées par des disques jaunes et rouges sur la carte.

Passer la souris dessus pour voir le nom de la station.

Cliquer dessus pour voir les observations et prévisions météorologiques.

Pour changer de carte: cliquez sur les boutons verts avec une croix noire pour zoomer, sur le bouton vert avec un tiret pour effectuer un zoom arrière, ou sur les flèches vertes pour les cartes adjacentes.


METAR-TAF: